createdAt,value
2023-02-09T00:01:09.884Z,99.90
2023-02-09T00:03:38.279Z,99.90
2023-02-09T00:06:07.289Z,99.90
2023-02-09T00:08:35.801Z,99.90
2023-02-09T00:11:11.138Z,99.90
2023-02-09T00:13:38.853Z,99.90
2023-02-09T00:16:06.837Z,99.90
2023-02-09T00:18:34.290Z,99.90
2023-02-09T00:21:07.336Z,99.90
2023-02-09T00:23:37.479Z,99.90
2023-02-09T00:26:08.837Z,99.90
2023-02-09T00:28:36.370Z,99.90
2023-02-09T00:31:11.656Z,99.90
2023-02-09T00:33:40.983Z,99.90
2023-02-09T00:36:12.046Z,99.90
2023-02-09T00:38:40.517Z,99.90
2023-02-09T00:41:09.091Z,99.90
2023-02-09T00:43:36.598Z,99.90
2023-02-09T00:46:04.089Z,99.90
2023-02-09T00:48:31.423Z,99.90
2023-02-09T00:50:59.072Z,99.90
2023-02-09T00:53:26.571Z,99.90
2023-02-09T00:55:53.813Z,99.90
2023-02-09T00:58:21.085Z,99.90
2023-02-09T01:00:50.626Z,99.90
2023-02-09T01:03:17.810Z,99.90
2023-02-09T01:05:45.024Z,99.90
2023-02-09T01:08:12.314Z,99.90
2023-02-09T01:10:40.050Z,99.90
2023-02-09T01:13:07.274Z,99.90
2023-02-09T01:15:34.645Z,99.90
2023-02-09T01:18:01.872Z,99.90
2023-02-09T01:20:29.253Z,99.90
2023-02-09T01:22:56.410Z,99.90
2023-02-09T01:25:23.714Z,99.90
2023-02-09T01:27:50.948Z,99.90
2023-02-09T01:30:18.519Z,99.90
2023-02-09T01:32:45.797Z,99.90
2023-02-09T01:35:13.068Z,99.90
2023-02-09T01:37:40.386Z,99.90
2023-02-09T01:40:08.887Z,99.90
2023-02-09T01:42:36.164Z,99.90
2023-02-09T01:45:24.704Z,99.90
2023-02-09T01:47:58.676Z,99.90
2023-02-09T01:50:27.194Z,99.90
2023-02-09T01:52:55.500Z,99.90
2023-02-09T01:55:27.916Z,99.90
2023-02-09T01:58:01.409Z,99.90
2023-02-09T02:00:28.699Z,99.90
2023-02-09T02:03:01.035Z,99.90
2023-02-09T02:05:29.473Z,99.90
2023-02-09T02:08:14.751Z,99.90
2023-02-09T02:10:41.924Z,99.90
2023-02-09T02:13:09.265Z,99.90
2023-02-09T02:16:03.038Z,99.90
2023-02-09T02:18:38.312Z,99.90
2023-02-09T02:21:14.822Z,99.90
2023-02-09T02:24:01.124Z,99.90
2023-02-09T02:27:00.944Z,99.90
2023-02-09T02:29:43.812Z,99.90
2023-02-09T02:32:19.852Z,99.90
2023-02-09T02:35:08.062Z,99.90
2023-02-09T02:38:05.956Z,99.90
2023-02-09T02:41:07.484Z,99.90
2023-02-09T02:43:48.155Z,99.90
2023-02-09T02:46:26.589Z,99.90
2023-02-09T02:48:59.735Z,99.90
2023-02-09T02:51:39.048Z,99.90
2023-02-09T02:54:11.529Z,99.90
2023-02-09T02:56:43.337Z,99.90
2023-02-09T02:59:15.033Z,99.90
2023-02-09T03:01:53.908Z,99.90
2023-02-09T03:04:22.465Z,99.90
2023-02-09T03:06:49.692Z,99.90
2023-02-09T03:09:18.695Z,99.90
2023-02-09T03:11:50.003Z,99.90
2023-02-09T03:14:23.253Z,99.90
2023-02-09T03:17:15.005Z,99.90
2023-02-09T03:20:08.222Z,99.90
2023-02-09T03:22:39.876Z,99.90
2023-02-09T03:25:20.107Z,99.90
2023-02-09T03:28:00.729Z,99.90
2023-02-09T03:30:28.326Z,99.90
2023-02-09T03:32:56.470Z,99.90
2023-02-09T03:35:31.421Z,99.90
2023-02-09T03:37:58.582Z,99.90
2023-02-09T03:40:25.746Z,99.90
2023-02-09T03:42:54.585Z,99.90
2023-02-09T03:45:21.741Z,99.90
2023-02-09T03:47:48.959Z,99.90
2023-02-09T03:50:16.449Z,99.90
2023-02-09T03:52:43.658Z,99.90
2023-02-09T03:55:10.834Z,99.90
2023-02-09T03:57:39.392Z,99.90
2023-02-09T04:00:07.742Z,99.90
2023-02-09T04:02:39.389Z,99.90
2023-02-09T04:05:07.081Z,99.90
2023-02-09T04:07:34.424Z,99.90
2023-02-09T04:10:01.768Z,99.90
2023-02-09T04:12:30.213Z,99.90
2023-02-09T04:14:57.415Z,99.90
2023-02-09T04:17:24.739Z,99.90
2023-02-09T04:19:51.969Z,99.90
2023-02-09T04:22:19.117Z,99.90
2023-02-09T04:24:46.364Z,99.90
2023-02-09T04:27:13.528Z,99.90
2023-02-09T04:29:40.877Z,99.90
2023-02-09T04:32:08.193Z,99.90
2023-02-09T04:34:35.434Z,99.90
2023-02-09T04:37:02.581Z,99.90
2023-02-09T04:39:29.877Z,99.90
2023-02-09T04:41:57.035Z,99.90
2023-02-09T04:44:24.493Z,99.90
2023-02-09T04:46:58.702Z,99.90
2023-02-09T04:49:25.816Z,99.90
2023-02-09T04:51:53.009Z,99.90
2023-02-09T04:54:20.284Z,99.90
2023-02-09T04:56:47.571Z,99.90
2023-02-09T04:59:33.500Z,99.90
2023-02-09T05:02:00.649Z,99.90
2023-02-09T05:04:27.950Z,99.90
2023-02-09T05:06:55.134Z,99.90
2023-02-09T05:09:22.461Z,99.90
2023-02-09T05:11:49.736Z,99.90
2023-02-09T05:14:16.915Z,99.90
2023-02-09T05:16:44.149Z,99.90
2023-02-09T05:19:14.630Z,99.90
2023-02-09T05:21:41.936Z,99.90
2023-02-09T05:24:09.100Z,99.90
2023-02-09T05:26:36.620Z,99.90
2023-02-09T05:29:04.576Z,99.90
2023-02-09T05:31:31.923Z,99.90
2023-02-09T05:34:01.093Z,99.90
2023-02-09T05:36:28.397Z,99.90
2023-02-09T05:38:55.616Z,99.90
2023-02-09T05:41:41.457Z,99.90
2023-02-09T05:44:08.977Z,99.90
2023-02-09T05:46:36.273Z,99.90
2023-02-09T05:49:03.462Z,99.90
2023-02-09T05:51:30.616Z,99.90
2023-02-09T05:53:58.031Z,99.90
2023-02-09T05:56:25.309Z,99.90
2023-02-09T05:58:52.473Z,99.90
2023-02-09T06:01:19.685Z,99.90
2023-02-09T06:03:46.964Z,99.90
2023-02-09T06:06:14.150Z,99.90
2023-02-09T06:08:41.381Z,99.90
2023-02-09T06:11:08.521Z,99.90
2023-02-09T06:13:35.884Z,99.90
2023-02-09T06:16:03.488Z,99.90
2023-02-09T06:18:30.799Z,99.90
2023-02-09T06:20:57.967Z,99.90
2023-02-09T06:23:25.247Z,99.90
2023-02-09T06:25:53.259Z,99.90
2023-02-09T06:28:21.146Z,99.90
2023-02-09T06:30:53.330Z,99.90
2023-02-09T06:33:21.119Z,99.90
2023-02-09T06:35:49.479Z,99.90
2023-02-09T06:38:18.115Z,99.90
2023-02-09T06:40:47.398Z,99.90
2023-02-09T06:43:15.454Z,99.90
2023-02-09T06:45:42.944Z,99.90
2023-02-09T06:48:10.407Z,99.90
2023-02-09T06:50:39.089Z,99.90
2023-02-09T06:53:06.673Z,99.90
2023-02-09T06:55:34.352Z,99.90
2023-02-09T06:58:01.571Z,99.90
2023-02-09T07:00:28.965Z,99.90
2023-02-09T07:02:56.298Z,99.90
2023-02-09T07:05:23.602Z,99.90
2023-02-09T07:07:50.964Z,99.90
2023-02-09T07:10:19.386Z,99.90
2023-02-09T07:12:46.591Z,99.90
2023-02-09T07:15:14.959Z,99.90
2023-02-09T07:17:42.438Z,99.90
2023-02-09T07:20:10.543Z,99.90
2023-02-09T07:22:37.757Z,99.90
2023-02-09T07:25:05.350Z,99.90
2023-02-09T07:27:32.630Z,99.90
2023-02-09T07:30:01.088Z,99.90
2023-02-09T07:32:29.741Z,99.90
2023-02-09T07:34:56.913Z,99.90
2023-02-09T07:37:24.061Z,99.90
2023-02-09T07:39:51.463Z,99.90
2023-02-09T07:42:18.765Z,99.90
2023-02-09T07:44:50.543Z,99.90
2023-02-09T07:47:17.792Z,99.90
2023-02-09T07:49:45.115Z,99.90
2023-02-09T07:52:12.524Z,99.90
2023-02-09T07:54:39.718Z,99.90
2023-02-09T07:57:06.975Z,99.90
2023-02-09T07:59:34.269Z,99.90
2023-02-09T08:02:01.652Z,99.90
2023-02-09T08:04:29.524Z,99.90
2023-02-09T08:06:56.948Z,99.90
2023-02-09T08:09:24.172Z,99.90
2023-02-09T08:11:58.839Z,99.90
2023-02-09T08:14:31.063Z,99.90
2023-02-09T08:17:22.818Z,99.90
2023-02-09T08:20:27.620Z,99.90
2023-02-09T08:23:00.018Z,99.90
2023-02-09T08:25:27.320Z,99.90
2023-02-09T08:27:54.652Z,99.90
2023-02-09T08:30:22.009Z,99.90
2023-02-09T08:32:49.305Z,99.90
2023-02-09T08:35:16.883Z,99.90
2023-02-09T08:37:44.202Z,99.90
2023-02-09T08:40:12.404Z,99.90
2023-02-09T08:42:40.293Z,99.90
2023-02-09T08:45:07.982Z,99.90
2023-02-09T08:47:35.160Z,99.90
2023-02-09T08:50:02.658Z,99.90
2023-02-09T08:52:30.113Z,99.90
2023-02-09T08:54:57.374Z,99.90
2023-02-09T08:57:38.171Z,99.90
2023-02-09T09:00:10.827Z,99.90
2023-02-09T09:02:38.042Z,99.90
2023-02-09T09:05:05.564Z,99.90
2023-02-09T09:07:33.087Z,99.90
2023-02-09T09:10:00.878Z,99.90
2023-02-09T09:12:30.587Z,99.90
2023-02-09T09:14:57.785Z,99.90
2023-02-09T09:17:25.015Z,99.90
2023-02-09T09:19:56.466Z,99.90
2023-02-09T09:22:23.905Z,99.80
2023-02-09T09:24:52.499Z,99.60
2023-02-09T09:27:19.738Z,99.70
2023-02-09T09:29:46.891Z,99.70
2023-02-09T09:32:14.229Z,99.60
2023-02-09T09:34:42.194Z,99.70
2023-02-09T09:37:09.545Z,99.40
2023-02-09T09:39:36.718Z,99.30
2023-02-09T09:42:06.236Z,99.20
2023-02-09T09:44:47.103Z,99.10
2023-02-09T09:47:20.483Z,98.90
2023-02-09T09:49:48.303Z,99.00
2023-02-09T09:52:47.616Z,98.70
2023-02-09T09:55:23.288Z,98.90
2023-02-09T09:57:52.696Z,99.00
2023-02-09T10:00:29.756Z,98.60
2023-02-09T10:02:56.978Z,98.40
2023-02-09T10:05:30.179Z,98.60
2023-02-09T10:08:03.205Z,98.70
2023-02-09T10:11:10.253Z,98.60
2023-02-09T10:13:44.591Z,98.50
2023-02-09T10:16:40.687Z,98.60
2023-02-09T10:19:23.749Z,98.10
2023-02-09T10:21:51.084Z,98.50
2023-02-09T10:24:28.105Z,98.90
2023-02-09T10:27:33.646Z,98.10
2023-02-09T10:30:27.115Z,97.40
2023-02-09T10:32:59.747Z,97.40
2023-02-09T10:35:41.903Z,97.20
2023-02-09T10:38:24.761Z,97.30
2023-02-09T10:40:52.243Z,97.30
2023-02-09T10:43:21.201Z,97.30
2023-02-09T10:45:57.231Z,97.20
2023-02-09T10:48:27.034Z,96.70
2023-02-09T10:50:57.154Z,96.10
2023-02-09T10:53:29.300Z,95.40
2023-02-09T10:56:21.310Z,95.20
2023-02-09T10:58:52.958Z,95.20
2023-02-09T11:01:23.927Z,94.30
2023-02-09T11:04:21.845Z,94.20
2023-02-09T11:06:55.279Z,94.00
2023-02-09T11:09:47.129Z,93.90
2023-02-09T11:12:15.012Z,94.00
2023-02-09T11:14:43.234Z,94.00
2023-02-09T11:17:29.773Z,93.30
2023-02-09T11:20:09.026Z,93.30
2023-02-09T11:23:01.824Z,93.60
2023-02-09T11:25:41.332Z,93.90
2023-02-09T11:28:23.593Z,93.50
2023-02-09T11:31:17.521Z,93.40
2023-02-09T11:33:52.426Z,93.00
2023-02-09T11:36:38.120Z,93.10
2023-02-09T11:39:25.122Z,93.30
2023-02-09T11:42:17.702Z,93.00
2023-02-09T11:44:58.840Z,92.40
2023-02-09T11:47:48.099Z,92.60
2023-02-09T11:50:26.778Z,92.80
2023-02-09T11:53:00.561Z,92.60
2023-02-09T11:55:38.469Z,91.50
2023-02-09T11:58:30.328Z,91.90
2023-02-09T12:01:24.298Z,91.90
2023-02-09T12:04:15.634Z,91.40
2023-02-09T12:06:53.450Z,91.50
2023-02-09T12:09:37.483Z,91.10
2023-02-09T12:12:29.963Z,90.80
2023-02-09T12:15:15.811Z,90.30
2023-02-09T12:17:54.968Z,90.10
2023-02-09T12:20:37.290Z,88.90
2023-02-09T12:23:35.704Z,88.90
2023-02-09T12:26:09.165Z,90.10
2023-02-09T12:28:43.593Z,88.40
2023-02-09T12:31:20.089Z,86.20
2023-02-09T12:33:47.420Z,86.30
2023-02-09T12:36:14.541Z,84.90
2023-02-09T12:38:55.977Z,86.70
2023-02-09T12:41:49.524Z,86.30
2023-02-09T12:44:16.629Z,86.80
2023-02-09T12:46:52.938Z,86.80
2023-02-09T12:49:27.481Z,84.50
2023-02-09T12:52:00.424Z,84.00
2023-02-09T12:54:42.744Z,82.90
2023-02-09T12:57:16.351Z,82.20
2023-02-09T12:59:52.448Z,80.90
2023-02-09T13:02:50.625Z,80.60
2023-02-09T13:05:30.107Z,81.00
2023-02-09T13:08:00.527Z,79.10
2023-02-09T13:10:43.241Z,78.20
2023-02-09T13:13:19.530Z,76.10
2023-02-09T13:16:04.528Z,75.50
2023-02-09T13:19:03.214Z,75.10
2023-02-09T13:21:42.262Z,65.10
2023-02-09T13:24:19.400Z,53.30
2023-02-09T13:26:51.781Z,48.10
2023-02-09T13:29:24.249Z,44.20
2023-02-09T13:32:16.090Z,38.10
2023-02-09T13:34:55.811Z,38.80
2023-02-09T13:37:32.041Z,36.20
2023-02-09T13:40:03.076Z,35.00
2023-02-09T13:42:35.856Z,33.50
2023-02-09T13:45:03.220Z,33.70
2023-02-09T13:47:30.948Z,33.70
2023-02-09T13:50:18.426Z,33.80
2023-02-09T13:52:45.872Z,33.70
2023-02-09T13:55:20.232Z,33.90
2023-02-09T13:57:58.986Z,34.10
2023-02-09T14:00:29.762Z,34.00
2023-02-09T14:03:03.984Z,34.60
2023-02-09T14:05:42.648Z,34.90
2023-02-09T14:08:12.955Z,35.40
2023-02-09T14:10:44.186Z,34.40
2023-02-09T14:13:20.783Z,34.00
2023-02-09T14:16:09.735Z,33.50
2023-02-09T14:18:46.079Z,34.00
2023-02-09T14:21:16.273Z,34.40
2023-02-09T14:23:49.102Z,36.10
2023-02-09T14:26:22.260Z,37.40
2023-02-09T14:29:15.157Z,38.70
2023-02-09T14:31:50.470Z,40.00
2023-02-09T14:34:27.115Z,40.90
2023-02-09T14:37:00.445Z,41.80
2023-02-09T14:39:31.154Z,42.70
2023-02-09T14:42:15.110Z,43.30
2023-02-09T14:44:52.853Z,44.00
2023-02-09T14:47:30.877Z,44.80
2023-02-09T14:49:59.209Z,45.50
2023-02-09T14:52:33.246Z,45.80
2023-02-09T14:55:07.081Z,46.30
2023-02-09T14:57:36.351Z,46.80
2023-02-09T15:00:25.052Z,47.60
2023-02-09T15:02:53.550Z,48.50
2023-02-09T15:05:22.715Z,50.00
2023-02-09T15:08:03.591Z,49.60
2023-02-09T15:10:38.890Z,49.70
2023-02-09T15:13:06.586Z,50.00
2023-02-09T15:15:37.798Z,50.50
2023-02-09T15:18:12.167Z,50.90
2023-02-09T15:20:39.683Z,51.10
2023-02-09T15:23:07.052Z,51.50
2023-02-09T15:25:34.301Z,52.40
2023-02-09T15:28:02.945Z,53.20
2023-02-09T15:30:34.541Z,53.20
2023-02-09T15:33:02.109Z,53.90
2023-02-09T15:35:30.003Z,53.80
2023-02-09T15:37:59.843Z,54.60
2023-02-09T15:40:51.489Z,54.90
2023-02-09T15:43:39.365Z,55.30
2023-02-09T15:46:26.535Z,55.80
2023-02-09T15:48:53.826Z,56.50
2023-02-09T15:51:22.582Z,57.80
2023-02-09T15:53:50.667Z,58.80
2023-02-09T15:56:18.911Z,59.70
2023-02-09T15:58:46.796Z,60.90
2023-02-09T16:01:16.716Z,62.40
2023-02-09T16:03:44.638Z,64.90
2023-02-09T16:06:19.310Z,67.10
2023-02-09T16:08:47.187Z,69.50
2023-02-09T16:11:24.665Z,71.10
2023-02-09T16:13:52.052Z,72.80
2023-02-09T16:16:19.328Z,75.00
2023-02-09T16:18:47.602Z,76.80
2023-02-09T16:21:27.993Z,78.80
2023-02-09T16:23:57.404Z,80.30
2023-02-09T16:26:26.745Z,81.50
2023-02-09T16:28:54.838Z,82.90
2023-02-09T16:31:22.786Z,84.50
2023-02-09T16:33:51.443Z,85.40
2023-02-09T16:36:24.440Z,86.30
2023-02-09T16:38:51.797Z,87.00
2023-02-09T16:41:39.438Z,87.40
2023-02-09T16:44:20.387Z,88.30
2023-02-09T16:46:50.307Z,89.10
2023-02-09T16:49:40.462Z,89.90
2023-02-09T16:52:21.746Z,90.20
2023-02-09T16:54:52.290Z,90.60
2023-02-09T16:57:23.100Z,90.90
2023-02-09T16:59:51.241Z,91.20
2023-02-09T17:02:50.915Z,91.30
2023-02-09T17:05:31.632Z,91.50
2023-02-09T17:08:02.449Z,91.40
2023-02-09T17:10:34.392Z,91.40
2023-02-09T17:13:02.153Z,91.90
2023-02-09T17:15:32.454Z,91.90
2023-02-09T17:18:04.622Z,92.20
2023-02-09T17:20:44.930Z,92.60
2023-02-09T17:23:23.432Z,92.70
2023-02-09T17:25:54.942Z,92.70
2023-02-09T17:28:24.073Z,92.80
2023-02-09T17:30:55.462Z,93.20
2023-02-09T17:33:26.090Z,93.30
2023-02-09T17:36:24.790Z,93.40
2023-02-09T17:38:45.540Z,93.40
2023-02-09T17:41:28.797Z,93.80
2023-02-09T17:44:14.018Z,93.80
2023-02-09T17:46:46.997Z,93.90
2023-02-09T17:49:14.271Z,94.30
2023-02-09T17:51:44.647Z,94.30
2023-02-09T17:54:14.381Z,94.30
2023-02-09T17:56:41.900Z,94.50
2023-02-09T17:59:09.274Z,94.60
2023-02-09T18:01:42.812Z,94.60
2023-02-09T18:04:19.895Z,94.90
2023-02-09T18:06:47.687Z,95.10
2023-02-09T18:09:15.178Z,95.10
2023-02-09T18:11:45.107Z,95.00
2023-02-09T18:14:16.731Z,95.00
2023-02-09T18:16:45.549Z,95.00
2023-02-09T18:19:14.083Z,95.10
2023-02-09T18:21:50.081Z,95.10
2023-02-09T18:24:18.898Z,94.90
2023-02-09T18:26:47.974Z,95.20
2023-02-09T18:29:15.322Z,95.20
2023-02-09T18:31:42.866Z,95.30
2023-02-09T18:34:10.966Z,95.60
2023-02-09T18:36:38.293Z,95.60
2023-02-09T18:39:05.563Z,95.60
2023-02-09T18:41:32.927Z,95.70
2023-02-09T18:44:00.290Z,95.70
2023-02-09T18:46:27.674Z,95.60
2023-02-09T18:48:54.988Z,95.70
2023-02-09T18:51:22.761Z,95.80
2023-02-09T18:53:51.268Z,95.80
2023-02-09T18:56:22.778Z,96.00
2023-02-09T18:58:52.427Z,95.90
2023-02-09T19:01:21.522Z,96.00
2023-02-09T19:03:53.225Z,96.00
2023-02-09T19:06:22.143Z,95.80
2023-02-09T19:08:50.641Z,96.00
2023-02-09T19:11:20.385Z,96.10
2023-02-09T19:14:07.914Z,96.30
2023-02-09T19:16:36.839Z,96.40
2023-02-09T19:19:04.718Z,96.50
2023-02-09T19:21:32.415Z,96.70
2023-02-09T19:23:59.681Z,96.80
2023-02-09T19:26:26.907Z,96.90
2023-02-09T19:28:56.964Z,96.80
2023-02-09T19:31:24.931Z,96.90
2023-02-09T19:33:59.311Z,97.00
2023-02-09T19:36:28.482Z,97.10
2023-02-09T19:38:56.367Z,97.10
2023-02-09T19:41:25.700Z,97.20
2023-02-09T19:43:56.996Z,97.40
2023-02-09T19:46:25.207Z,97.40
2023-02-09T19:48:53.904Z,97.40
2023-02-09T19:51:22.086Z,97.40
2023-02-09T19:53:49.556Z,97.60
2023-02-09T19:56:20.736Z,97.60
2023-02-09T19:58:47.968Z,97.70
2023-02-09T20:01:15.898Z,97.70
2023-02-09T20:03:43.134Z,97.90
2023-02-09T20:06:13.579Z,97.90
2023-02-09T20:08:41.175Z,97.90
2023-02-09T20:11:19.795Z,98.00
2023-02-09T20:13:50.945Z,98.00
2023-02-09T20:16:22.377Z,98.20
2023-02-09T20:18:50.426Z,98.10
2023-02-09T20:21:19.107Z,98.30
2023-02-09T20:23:47.174Z,98.30
2023-02-09T20:26:26.246Z,98.40
2023-02-09T20:28:54.114Z,98.30
2023-02-09T20:31:23.790Z,98.40
2023-02-09T20:33:51.517Z,98.20
2023-02-09T20:36:19.169Z,98.30
2023-02-09T20:38:46.581Z,98.50
2023-02-09T20:41:18.468Z,98.50
2023-02-09T20:44:04.738Z,98.50
2023-02-09T20:46:51.418Z,98.60
2023-02-09T20:49:18.985Z,98.40
2023-02-09T20:51:46.918Z,98.60
2023-02-09T20:54:14.850Z,98.60
2023-02-09T20:56:42.308Z,98.70
2023-02-09T20:59:11.523Z,98.60
2023-02-09T21:01:39.955Z,98.60
2023-02-09T21:04:07.663Z,98.70
2023-02-09T21:06:39.850Z,98.80
2023-02-09T21:09:08.936Z,98.80
2023-02-09T21:11:36.606Z,99.00
2023-02-09T21:14:04.364Z,99.10
2023-02-09T21:16:32.158Z,99.00
2023-02-09T21:19:00.072Z,99.10
2023-02-09T21:21:27.637Z,99.00
2023-02-09T21:23:55.026Z,99.00
2023-02-09T21:26:24.097Z,99.00
2023-02-09T21:28:56.250Z,98.90
2023-02-09T21:31:26.551Z,98.80
2023-02-09T21:33:53.962Z,98.90
2023-02-09T21:36:21.353Z,98.90
2023-02-09T21:38:48.606Z,98.80
2023-02-09T21:41:40.141Z,98.80
2023-02-09T21:44:09.841Z,98.90
2023-02-09T21:46:37.264Z,99.00
2023-02-09T21:49:05.139Z,98.90
2023-02-09T21:51:32.407Z,98.90
2023-02-09T21:53:59.653Z,99.10
2023-02-09T21:56:26.865Z,99.10
2023-02-09T21:58:54.043Z,99.20
2023-02-09T22:01:21.245Z,99.30
2023-02-09T22:03:50.081Z,99.00
2023-02-09T22:06:17.630Z,99.10
2023-02-09T22:08:44.846Z,99.20
2023-02-09T22:11:12.245Z,99.20
2023-02-09T22:13:39.649Z,99.20
2023-02-09T22:16:08.503Z,99.30
2023-02-09T22:18:36.604Z,99.40
2023-02-09T22:21:07.765Z,99.50
2023-02-09T22:23:35.106Z,99.50
2023-02-09T22:26:04.648Z,99.70
2023-02-09T22:28:33.910Z,99.60
2023-02-09T22:31:14.415Z,99.70
2023-02-09T22:33:42.312Z,99.70
2023-02-09T22:36:16.082Z,99.60
2023-02-09T22:38:48.452Z,99.60
2023-02-09T22:41:21.681Z,99.60
2023-02-09T22:43:51.246Z,99.80
2023-02-09T22:46:19.693Z,99.80
2023-02-09T22:48:58.502Z,99.70
2023-02-09T22:51:28.514Z,99.90
2023-02-09T22:53:57.731Z,99.90
2023-02-09T22:56:25.630Z,99.90
2023-02-09T22:58:54.119Z,99.90
2023-02-09T23:01:21.820Z,99.90
2023-02-09T23:03:49.280Z,99.90
2023-02-09T23:06:19.413Z,99.90
2023-02-09T23:08:47.763Z,99.90
2023-02-09T23:11:17.301Z,99.90
2023-02-09T23:13:46.192Z,99.90
2023-02-09T23:16:20.535Z,99.90
2023-02-09T23:18:53.842Z,99.90
2023-02-09T23:21:23.313Z,99.90
2023-02-09T23:23:51.164Z,99.90
2023-02-09T23:26:19.374Z,99.90
2023-02-09T23:28:47.769Z,99.90
2023-02-09T23:31:17.921Z,99.90
2023-02-09T23:33:45.581Z,99.90
2023-02-09T23:36:16.542Z,99.90
2023-02-09T23:38:44.791Z,99.90
2023-02-09T23:41:15.290Z,99.90
2023-02-09T23:43:43.484Z,99.90
2023-02-09T23:46:14.080Z,99.90
2023-02-09T23:48:41.556Z,99.90
2023-02-09T23:51:13.156Z,99.90
2023-02-09T23:53:40.369Z,99.90
2023-02-09T23:56:07.863Z,99.90
2023-02-09T23:58:37.920Z,99.90
